New Harbor, ME (Heathkit)

43° 52' 34"N, 69° 29' 40"W, Elevation 65 ft.
Eastern Time

Hourly observations for the last 72 hours

Date Time Temperature (°F) Humi-
dity

(%)
Wind
(mph)
Pressure Rain (in)
Air Dew 6 Hour 1 Hr 3 Hr 6 Hr Day
Alt
(in)
Sea
Level

(mb)
Max Min
17 19:00 72 56 58 NW 1 G 2 29.82 1009.9 0.00
17 18:00 75 57 53 NNW 2 G 4 29.81 1009.5 0.00
17 17:00 80 54 41 W 4 G 12 29.79 1008.8 0.00
17 16:00 81 54 40 W 5 G 10 29.79 1008.8 0.00
17 15:00 80 56 43 NNW 3 G 9 29.80 1009.2 0.00
17 14:00 80 54 80 60 41 WNW 5 G 12 29.81 1009.5 0.00
17 13:00 77 53 44 NW 5 G 20 29.82 1009.9 0.00
17 12:00 77 53 43 SSW 4 G 16 29.84 1010.5 0.00
17 11:00 74 52 46 NW 7 G 15 29.85 1010.9 0.00
17 10:00 72 52 50 WSW 5 G 12 29.88 1011.9 0.00
17 09:00 68 52 56 WSW 3 G 9 29.88 1011.9 0.00
17 08:00 61 50 61 48 68 W 2 G 4 29.88 1011.9 0.00
17 07:00 55 49 79 ENE 0 G 2 29.88 1011.9 0.00
17 06:00 52 46 81 W 2 G 4 29.87 1011.5 0.00
17 05:00 53 46 78 N 0 G 4 29.85 1010.9 0.00
17 04:00 55 47 75 ENE 1 G 2 29.86 1011.2 0.00
17 03:00 56 47 73 ENE 2 G 4 29.85 1010.9 0.00
17 02:00 54 46 69 52 75 NNE 0 G 3 29.85 1010.9 0.00
17 01:00 56 47 72 N 1 G 4 29.85 1010.9 0.00
17 00:00 58 47 66 NNW 2 G 5 29.85 1010.9 0.00
16 23:00 62 46 56 ENE 1 G 3 29.86 1011.2 0.00
16 22:00 65 46 51 NNE 1 G 7 29.85 1010.9 0.00
16 21:00 67 46 46 N 2 G 7 29.83 1010.2 0.00
16 20:00 69 47 81 65 45 N 2 G 5 29.82 1009.9 0.00
16 19:00 72 47 41 NW 3 G 11 29.80 1009.2 0.00
16 18:00 75 48 39 NNE 3 G 11 29.77 1008.2 0.00
16 17:00 79 51 37 N 3 G 12 29.76 1007.8 0.00
16 16:00 81 51 35 WSW 4 G 14 29.75 1007.5 0.00
16 15:00 80 51 37 NW 7 G 15 29.75 1007.5 0.00
16 14:00 80 54 82 67 40 WNW 6 G 16 29.74 1007.1 0.00
16 13:00 82 59 45 N 4 G 16 29.74 1007.1 0.00
16 12:00 79 58 49 NW 7 G 11 29.74 1007.1 0.00
16 11:00 79 60 52 NW 8 G 17 29.76 1007.8 0.00
16 10:00 77 61 57 NNW 5 G 14 29.75 1007.5 0.00
16 09:00 73 60 64 NW 4 G 12 29.75 1007.5 0.00
16 08:00 67 61 67 58 81 NNW 4 G 9 29.75 1007.5 0.00
16 07:00 64 60 88 NNW 2 G 7 29.73 1006.8 0.00
16 06:00 63 59 87 NW 2 G 4 29.72 1006.5 0.00
16 05:00 64 60 88 NW 2 G 4 29.70 1005.8 0.00
16 04:00 63 59 87 W 1 G 3 29.68 1005.1 0.00
16 03:00 64 59 85 WNW 2 G 4 29.69 1005.5 0.00
16 02:00 65 61 69 58 86 NW 3 G 7 29.68 1005.1 0.00
16 01:00 65 60 83 WSW 3 G 9 29.69 1005.5 0.00
16 00:00 65 60 83 SSW 2 G 6 29.70 1005.8 0.00
15 23:00 66 61 83 S 3 G 8 29.71 1006.1 0.00
15 22:00 67 61 82 SSW 4 G 8 29.71 1006.1 0.00
15 21:00 68 63 83 SSW 6 G 15 29.72 1006.5 0.00
15 20:00 69 63 73 60 81 S 6 G 15 29.71 1006.1 0.00
15 19:00 69 63 81 S 6 G 14 29.73 1006.8 0.00
15 18:00 69 64 84 S 5 G 10 29.73 1006.8 0.00
15 17:00 69 64 83 S 4 G 9 29.73 1006.8 0.00
15 16:00 70 64 81 S 4 G 9 29.75 1007.5 0.00
15 15:00 71 63 76 SSE 3 G 6 29.76 1007.8 0.00
15 14:00 72 65 73 61 78 SSE 3 G 6 29.77 1008.2 0.00
15 13:00 73 65 75 ESE 1 G 6 29.77 1008.2 0.00
15 12:00 72 65 78 SE 1 G 6 29.79 1008.8 0.00
15 11:00 70 64 81 SSE 1 G 4 29.80 1009.2 0.00
15 10:00 68 64 86 S 4 G 8 29.80 1009.2 0.00
15 09:00 67 63 88 W 1 G 4 29.81 1009.5 0.00
15 08:00 66 62 66 61 88 E 1 G 2 29.81 1009.5 0.00
15 07:00 65 61 88 SE 0 G 2 29.82 1009.9 0.00
15 06:00 65 61 88 SSE 0 G 1 29.83 1010.2 0.00
15 05:00 65 61 88 SSW 1 G 5 29.81 1009.5 0.00
15 04:00 65 61 87 WNW 0 G 2 29.81 1009.5 0.00
15 03:00 64 60 87 WSW 0 G 1 29.82 1009.9 0.00
15 02:00 65 61 69 60 87 S 0 G 2 29.82 1009.9 0.00
15 01:00 66 62 87 S 1 G 4 29.83 1010.2 0.00
15 00:00 65 60 85 S 1 G 4 29.83 1010.2 0.00
14 23:00 66 61 83 SW 1 G 6 29.85 1010.9 0.00
14 22:00 67 61 80 S 4 G 12 29.85 1010.9 0.00
14 21:00 67 60 78 S 1 G 6 29.85 1010.9 0.00
14 20:00 69 60 81 66 72 SW 2 G 7 29.84 1010.5 0.00

Data generated by WxSolution Version 1.9.0.8, Build 2017.07.06.